sensor_id;sensor_type;location;lat;lon;timestamp;pressure;altitude;pressure_sealevel;temperature;humidity
17781;BME280;8498;52.516;13.790;2023-07-30T00:03:43;100303.31;;;17.80;100.00
17781;BME280;8498;52.516;13.790;2023-07-30T00:09:06;100303.97;;;17.74;100.00
17781;BME280;8498;52.516;13.790;2023-07-30T00:14:29;100305.66;;;17.75;100.00
17781;BME280;8498;52.516;13.790;2023-07-30T00:19:51;100301.28;;;17.74;100.00
17781;BME280;8498;52.516;13.790;2023-07-30T00:25:13;100301.88;;;17.68;100.00
17781;BME280;8498;52.516;13.790;2023-07-30T00:30:36;100300.19;;;17.67;100.00
17781;BME280;8498;52.516;13.790;2023-07-30T00:35:58;100301.19;;;17.66;100.00
17781;BME280;8498;52.516;13.790;2023-07-30T00:41:21;100299.81;;;17.61;100.00
17781;BME280;8498;52.516;13.790;2023-07-30T00:46:43;100297.59;;;17.57;100.00
17781;BME280;8498;52.516;13.790;2023-07-30T00:52:06;100287.00;;;17.55;100.00
17781;BME280;8498;52.516;13.790;2023-07-30T00:57:30;100277.91;;;17.48;100.00
17781;BME280;8498;52.516;13.790;2023-07-30T01:02:53;100263.78;;;17.46;100.00
17781;BME280;8498;52.516;13.790;2023-07-30T01:08:16;100270.50;;;17.42;100.00
17781;BME280;8498;52.516;13.790;2023-07-30T01:13:39;100268.59;;;17.35;100.00
17781;BME280;8498;52.516;13.790;2023-07-30T01:19:02;100282.34;;;17.32;100.00
17781;BME280;8498;52.516;13.790;2023-07-30T01:24:27;100288.56;;;17.32;100.00
17781;BME280;8498;52.516;13.790;2023-07-30T01:29:56;100299.06;;;17.25;100.00
17781;BME280;8498;52.516;13.790;2023-07-30T01:35:21;100305.81;;;17.30;100.00
17781;BME280;8498;52.516;13.790;2023-07-30T01:40:44;100312.03;;;17.30;100.00
17781;BME280;8498;52.516;13.790;2023-07-30T01:46:07;100311.59;;;17.17;100.00
17781;BME280;8498;52.516;13.790;2023-07-30T01:51:30;100317.44;;;17.12;100.00
17781;BME280;8498;52.516;13.790;2023-07-30T01:56:54;100335.00;;;17.07;100.00
17781;BME280;8498;52.516;13.790;2023-07-30T02:02:16;100336.06;;;16.96;100.00
17781;BME280;8498;52.516;13.790;2023-07-30T02:07:38;100337.53;;;16.91;100.00
17781;BME280;8498;52.516;13.790;2023-07-30T02:13:01;100330.22;;;16.83;100.00
17781;BME280;8498;52.516;13.790;2023-07-30T02:18:23;100327.41;;;16.84;100.00
17781;BME280;8498;52.516;13.790;2023-07-30T02:23:46;100319.97;;;16.78;100.00
17781;BME280;8498;52.516;13.790;2023-07-30T02:29:08;100322.25;;;16.73;100.00
17781;BME280;8498;52.516;13.790;2023-07-30T02:34:31;100332.31;;;16.71;100.00
17781;BME280;8498;52.516;13.790;2023-07-30T02:39:53;100330.66;;;16.61;100.00
17781;BME280;8498;52.516;13.790;2023-07-30T02:45:15;100322.78;;;16.59;100.00
17781;BME280;8498;52.516;13.790;2023-07-30T02:50:41;100327.16;;;16.60;100.00
17781;BME280;8498;52.516;13.790;2023-07-30T02:56:04;100330.53;;;16.62;100.00
17781;BME280;8498;52.516;13.790;2023-07-30T03:01:26;100331.38;;;16.63;100.00
17781;BME280;8498;52.516;13.790;2023-07-30T03:06:48;100338.59;;;16.52;100.00
17781;BME280;8498;52.516;13.790;2023-07-30T03:12:11;100342.81;;;16.55;100.00
17781;BME280;8498;52.516;13.790;2023-07-30T03:17:34;100343.69;;;16.56;100.00
17781;BME280;8498;52.516;13.790;2023-07-30T03:22:56;100348.19;;;16.55;100.00
17781;BME280;8498;52.516;13.790;2023-07-30T03:28:18;100344.38;;;16.58;100.00
17781;BME280;8498;52.516;13.790;2023-07-30T03:33:41;100336.75;;;16.53;100.00
17781;BME280;8498;52.516;13.790;2023-07-30T03:39:08;100346.50;;;16.54;100.00
17781;BME280;8498;52.516;13.790;2023-07-30T03:44:30;100356.78;;;16.59;100.00
17781;BME280;8498;52.516;13.790;2023-07-30T03:49:57;100365.25;;;16.64;100.00
17781;BME280;8498;52.516;13.790;2023-07-30T03:55:20;100356.34;;;16.63;100.00
17781;BME280;8498;52.516;13.790;2023-07-30T04:00:42;100360.28;;;16.69;100.00
17781;BME280;8498;52.516;13.790;2023-07-30T04:06:05;100376.16;;;16.80;100.00
17781;BME280;8498;52.516;13.790;2023-07-30T04:11:27;100373.69;;;16.86;100.00
17781;BME280;8498;52.516;13.790;2023-07-30T04:16:52;100380.47;;;16.91;100.00
17781;BME280;8498;52.516;13.790;2023-07-30T04:22:14;100385.00;;;16.90;100.00
17781;BME280;8498;52.516;13.790;2023-07-30T04:27:37;100384.91;;;17.00;100.00
17781;BME280;8498;52.516;13.790;2023-07-30T04:32:59;100389.66;;;17.06;100.00
17781;BME280;8498;52.516;13.790;2023-07-30T04:38:22;100385.91;;;17.16;100.00
17781;BME280;8498;52.516;13.790;2023-07-30T04:43:46;100384.75;;;17.19;100.00
17781;BME280;8498;52.516;13.790;2023-07-30T04:49:09;100390.75;;;17.31;100.00
17781;BME280;8498;52.516;13.790;2023-07-30T04:54:32;100407.06;;;17.37;100.00
17781;BME280;8498;52.516;13.790;2023-07-30T04:59:55;100394.38;;;17.47;100.00
17781;BME280;8498;52.516;13.790;2023-07-30T05:05:17;100392.69;;;17.46;100.00
17781;BME280;8498;52.516;13.790;2023-07-30T05:10:40;100394.44;;;17.55;100.00
17781;BME280;8498;52.516;13.790;2023-07-30T05:16:02;100393.00;;;17.61;100.00
17781;BME280;8498;52.516;13.790;2023-07-30T05:21:24;100396.47;;;17.71;100.00
17781;BME280;8498;52.516;13.790;2023-07-30T05:26:47;100398.56;;;17.85;100.00
17781;BME280;8498;52.516;13.790;2023-07-30T05:32:09;100415.09;;;17.98;100.00
17781;BME280;8498;52.516;13.790;2023-07-30T05:37:32;100396.84;;;18.10;100.00
17781;BME280;8498;52.516;13.790;2023-07-30T05:42:54;100399.44;;;18.20;100.00
17781;BME280;8498;52.516;13.790;2023-07-30T05:48:17;100409.91;;;18.31;100.00
17781;BME280;8498;52.516;13.790;2023-07-30T05:53:39;100404.78;;;18.46;100.00
17781;BME280;8498;52.516;13.790;2023-07-30T05:59:01;100397.72;;;18.53;100.00
17781;BME280;8498;52.516;13.790;2023-07-30T06:04:24;100389.56;;;18.62;100.00
17781;BME280;8498;52.516;13.790;2023-07-30T06:09:46;100394.47;;;18.75;100.00
17781;BME280;8498;52.516;13.790;2023-07-30T06:15:09;100405.63;;;18.88;100.00
17781;BME280;8498;52.516;13.790;2023-07-30T06:20:32;100406.66;;;19.03;100.00
17781;BME280;8498;52.516;13.790;2023-07-30T06:25:54;100407.16;;;19.07;100.00
17781;BME280;8498;52.516;13.790;2023-07-30T06:31:17;100411.88;;;19.13;100.00
17781;BME280;8498;52.516;13.790;2023-07-30T06:36:39;100408.72;;;19.18;100.00
17781;BME280;8498;52.516;13.790;2023-07-30T06:42:02;100410.03;;;19.22;100.00
17781;BME280;8498;52.516;13.790;2023-07-30T06:47:25;100415.78;;;19.35;100.00
17781;BME280;8498;52.516;13.790;2023-07-30T06:52:48;100414.00;;;19.52;100.00
17781;BME280;8498;52.516;13.790;2023-07-30T06:58:10;100406.03;;;19.83;100.00
17781;BME280;8498;52.516;13.790;2023-07-30T07:03:33;100417.63;;;19.99;100.00
17781;BME280;8498;52.516;13.790;2023-07-30T07:08:55;100414.78;;;20.01;100.00
17781;BME280;8498;52.516;13.790;2023-07-30T07:14:18;100409.34;;;20.09;100.00
17781;BME280;8498;52.516;13.790;2023-07-30T07:19:40;100408.16;;;20.11;100.00
17781;BME280;8498;52.516;13.790;2023-07-30T07:25:03;100409.16;;;20.35;100.00
17781;BME280;8498;52.516;13.790;2023-07-30T07:30:25;100399.63;;;20.47;100.00
17781;BME280;8498;52.516;13.790;2023-07-30T07:35:47;100404.53;;;20.51;100.00
17781;BME280;8498;52.516;13.790;2023-07-30T07:41:16;100395.25;;;20.85;100.00
17781;BME280;8498;52.516;13.790;2023-07-30T07:46:39;100393.19;;;20.87;100.00
17781;BME280;8498;52.516;13.790;2023-07-30T07:52:02;100389.97;;;20.92;100.00
17781;BME280;8498;52.516;13.790;2023-07-30T07:57:24;100386.69;;;21.04;100.00
17781;BME280;8498;52.516;13.790;2023-07-30T08:02:47;100399.78;;;21.15;97.88
17781;BME280;8498;52.516;13.790;2023-07-30T08:08:13;100400.22;;;21.27;95.84
17781;BME280;8498;52.516;13.790;2023-07-30T08:13:36;100394.50;;;21.45;96.78
17781;BME280;8498;52.516;13.790;2023-07-30T08:18:58;100394.63;;;21.51;93.97
17781;BME280;8498;52.516;13.790;2023-07-30T08:24:21;100380.13;;;21.67;92.48
17781;BME280;8498;52.516;13.790;2023-07-30T08:29:43;100393.47;;;21.83;89.95
17781;BME280;8498;52.516;13.790;2023-07-30T08:35:06;100389.13;;;22.12;89.90
17781;BME280;8498;52.516;13.790;2023-07-30T08:40:29;100387.00;;;22.22;88.27
17781;BME280;8498;52.516;13.790;2023-07-30T08:45:53;100392.69;;;22.27;88.94
17781;BME280;8498;52.516;13.790;2023-07-30T08:51:16;100397.06;;;22.43;88.67
17781;BME280;8498;52.516;13.790;2023-07-30T08:56:39;100392.94;;;22.61;86.97
17781;BME280;8498;52.516;13.790;2023-07-30T09:02:04;100388.34;;;22.91;84.81
17781;BME280;8498;52.516;13.790;2023-07-30T09:07:30;100393.41;;;22.80;84.01
17781;BME280;8498;52.516;13.790;2023-07-30T09:12:54;100380.28;;;22.98;79.67
17781;BME280;8498;52.516;13.790;2023-07-30T09:18:17;100389.31;;;23.26;78.44
17781;BME280;8498;52.516;13.790;2023-07-30T09:23:44;100389.72;;;23.23;77.48
17781;BME280;8498;52.516;13.790;2023-07-30T09:29:10;100396.28;;;22.93;74.91
17781;BME280;8498;52.516;13.790;2023-07-30T09:34:33;100397.97;;;22.79;73.06
17781;BME280;8498;52.516;13.790;2023-07-30T09:39:57;100392.72;;;22.92;72.01
17781;BME280;8498;52.516;13.790;2023-07-30T09:45:21;100403.00;;;23.39;70.38
17781;BME280;8498;52.516;13.790;2023-07-30T09:50:44;100402.66;;;23.98;64.43
17781;BME280;8498;52.516;13.790;2023-07-30T09:56:06;100408.25;;;23.90;63.72
17781;BME280;8498;52.516;13.790;2023-07-30T10:01:30;100411.81;;;24.19;62.93
17781;BME280;8498;52.516;13.790;2023-07-30T10:07:00;100403.81;;;24.38;59.70
17781;BME280;8498;52.516;13.790;2023-07-30T10:12:31;100413.22;;;24.14;57.30
17781;BME280;8498;52.516;13.790;2023-07-30T10:17:56;100419.09;;;23.90;57.12
17781;BME280;8498;52.516;13.790;2023-07-30T10:23:27;100421.09;;;24.09;55.37
17781;BME280;8498;52.516;13.790;2023-07-30T10:29:15;100422.59;;;24.40;54.38
17781;BME280;8498;52.516;13.790;2023-07-30T10:34:47;100423.47;;;24.47;52.33
17781;BME280;8498;52.516;13.790;2023-07-30T10:40:16;100417.66;;;24.50;52.14
17781;BME280;8498;52.516;13.790;2023-07-30T10:45:48;100420.81;;;25.01;51.50
17781;BME280;8498;52.516;13.790;2023-07-30T10:51:16;100422.53;;;25.29;48.82
17781;BME280;8498;52.516;13.790;2023-07-30T10:56:39;100416.34;;;25.61;49.59
17781;BME280;8498;52.516;13.790;2023-07-30T11:02:02;100411.09;;;25.86;47.22
17781;BME280;8498;52.516;13.790;2023-07-30T11:07:25;100404.75;;;26.18;45.31
17781;BME280;8498;52.516;13.790;2023-07-30T11:12:51;100411.88;;;26.26;46.21
17781;BME280;8498;52.516;13.790;2023-07-30T11:18:14;100399.28;;;26.45;46.56
17781;BME280;8498;52.516;13.790;2023-07-30T11:23:39;100409.81;;;26.15;46.04
17781;BME280;8498;52.516;13.790;2023-07-30T11:29:19;100394.75;;;25.99;46.19
17781;BME280;8498;52.516;13.790;2023-07-30T11:34:45;100400.81;;;26.08;46.33
17781;BME280;8498;52.516;13.790;2023-07-30T11:40:11;100380.22;;;26.45;45.63
17781;BME280;8498;52.516;13.790;2023-07-30T11:45:34;100385.84;;;26.50;43.62
17781;BME280;8498;52.516;13.790;2023-07-30T11:50:57;100389.31;;;26.70;44.07
17781;BME280;8498;52.516;13.790;2023-07-30T11:56:24;100386.06;;;26.99;45.03
17781;BME280;8498;52.516;13.790;2023-07-30T12:01:47;100379.56;;;26.56;44.99
17781;BME280;8498;52.516;13.790;2023-07-30T12:07:10;100386.44;;;27.10;45.13
17781;BME280;8498;52.516;13.790;2023-07-30T12:12:32;100380.38;;;27.32;42.47
17781;BME280;8498;52.516;13.790;2023-07-30T12:17:54;100382.41;;;27.44;42.47
17781;BME280;8498;52.516;13.790;2023-07-30T12:23:18;100381.56;;;27.43;41.74
17781;BME280;8498;52.516;13.790;2023-07-30T12:28:40;100371.91;;;27.47;42.10
17781;BME280;8498;52.516;13.790;2023-07-30T12:34:03;100366.94;;;27.37;43.94
17781;BME280;8498;52.516;13.790;2023-07-30T12:39:25;100366.59;;;26.96;41.84
17781;BME280;8498;52.516;13.790;2023-07-30T12:44:48;100373.94;;;26.89;42.98
17781;BME280;8498;52.516;13.790;2023-07-30T12:50:11;100370.38;;;26.95;43.22
17781;BME280;8498;52.516;13.790;2023-07-30T12:55:33;100378.50;;;27.01;44.73
17781;BME280;8498;52.516;13.790;2023-07-30T13:00:56;100365.53;;;27.53;42.62
17781;BME280;8498;52.516;13.790;2023-07-30T13:06:20;100367.03;;;27.81;41.50
17781;BME280;8498;52.516;13.790;2023-07-30T13:11:42;100362.25;;;27.94;42.16
17781;BME280;8498;52.516;13.790;2023-07-30T13:17:05;100358.66;;;27.75;40.69
17781;BME280;8498;52.516;13.790;2023-07-30T13:22:29;100366.88;;;27.44;40.90
17781;BME280;8498;52.516;13.790;2023-07-30T13:27:51;100346.81;;;27.32;41.96
17781;BME280;8498;52.516;13.790;2023-07-30T13:33:14;100346.75;;;27.14;41.49
17781;BME280;8498;52.516;13.790;2023-07-30T13:38:36;100341.25;;;27.20;42.71
17781;BME280;8498;52.516;13.790;2023-07-30T13:44:00;100332.00;;;27.21;41.81
17781;BME280;8498;52.516;13.790;2023-07-30T13:49:23;100331.41;;;27.44;41.84
17781;BME280;8498;52.516;13.790;2023-07-30T13:54:45;100324.38;;;27.05;40.68
17781;BME280;8498;52.516;13.790;2023-07-30T14:00:09;100340.25;;;27.15;42.01
17781;BME280;8498;52.516;13.790;2023-07-30T14:05:31;100354.66;;;26.84;40.84
17781;BME280;8498;52.516;13.790;2023-07-30T14:10:54;100352.25;;;26.62;41.79
17781;BME280;8498;52.516;13.790;2023-07-30T14:16:16;100358.00;;;26.41;42.26
17781;BME280;8498;52.516;13.790;2023-07-30T14:21:39;100353.88;;;26.32;42.34
17781;BME280;8498;52.516;13.790;2023-07-30T14:27:02;100352.81;;;26.20;42.54
17781;BME280;8498;52.516;13.790;2023-07-30T14:32:25;100368.41;;;25.80;42.79
17781;BME280;8498;52.516;13.790;2023-07-30T14:37:47;100367.56;;;25.66;43.78
17781;BME280;8498;52.516;13.790;2023-07-30T14:43:11;100370.69;;;25.50;43.94
17781;BME280;8498;52.516;13.790;2023-07-30T14:48:34;100381.97;;;25.47;44.27
17781;BME280;8498;52.516;13.790;2023-07-30T14:53:56;100394.75;;;25.33;44.10
17781;BME280;8498;52.516;13.790;2023-07-30T14:59:19;100413.06;;;25.05;43.58
17781;BME280;8498;52.516;13.790;2023-07-30T15:04:41;100408.22;;;24.94;47.08
17781;BME280;8498;52.516;13.790;2023-07-30T15:10:04;100437.41;;;24.37;51.98
17781;BME280;8498;52.516;13.790;2023-07-30T15:15:27;100443.16;;;23.72;55.10
17781;BME280;8498;52.516;13.790;2023-07-30T15:20:49;100429.44;;;23.16;59.05
17781;BME280;8498;52.516;13.790;2023-07-30T15:26:12;100415.81;;;22.74;66.93
17781;BME280;8498;52.516;13.790;2023-07-30T15:31:34;100416.03;;;22.28;69.92
17781;BME280;8498;52.516;13.790;2023-07-30T15:36:57;100412.06;;;22.01;71.81
17781;BME280;8498;52.516;13.790;2023-07-30T15:42:21;100417.28;;;21.88;72.79
17781;BME280;8498;52.516;13.790;2023-07-30T15:47:44;100395.25;;;21.91;74.96
17781;BME280;8498;52.516;13.790;2023-07-30T15:53:06;100384.69;;;21.81;76.02
17781;BME280;8498;52.516;13.790;2023-07-30T15:58:29;100390.19;;;21.73;77.48
17781;BME280;8498;52.516;13.790;2023-07-30T16:03:51;100405.47;;;21.66;77.55
17781;BME280;8498;52.516;13.790;2023-07-30T16:09:14;100410.22;;;21.64;78.81
17781;BME280;8498;52.516;13.790;2023-07-30T16:14:36;100382.38;;;21.78;78.40
17781;BME280;8498;52.516;13.790;2023-07-30T16:19:59;100393.78;;;21.88;78.65
17781;BME280;8498;52.516;13.790;2023-07-30T16:25:21;100386.72;;;22.17;78.14
17781;BME280;8498;52.516;13.790;2023-07-30T16:30:44;100385.81;;;22.10;75.16
17781;BME280;8498;52.516;13.790;2023-07-30T16:36:06;100387.50;;;22.11;75.81
17781;BME280;8498;52.516;13.790;2023-07-30T16:41:29;100388.50;;;22.10;74.50
17781;BME280;8498;52.516;13.790;2023-07-30T16:46:52;100399.09;;;21.96;74.83
17781;BME280;8498;52.516;13.790;2023-07-30T16:52:15;100400.19;;;21.87;75.15
17781;BME280;8498;52.516;13.790;2023-07-30T16:57:39;100406.34;;;21.81;75.89
17781;BME280;8498;52.516;13.790;2023-07-30T17:03:01;100405.13;;;21.69;74.45
17781;BME280;8498;52.516;13.790;2023-07-30T17:08:27;100414.84;;;21.78;73.81
17781;BME280;8498;52.516;13.790;2023-07-30T17:13:51;100434.19;;;21.67;72.89
17781;BME280;8498;52.516;13.790;2023-07-30T17:19:16;100429.38;;;21.77;73.32
17781;BME280;8498;52.516;13.790;2023-07-30T17:24:38;100432.78;;;21.71;72.69
17781;BME280;8498;52.516;13.790;2023-07-30T17:30:02;100431.66;;;21.66;72.39
17781;BME280;8498;52.516;13.790;2023-07-30T17:35:24;100428.03;;;21.73;72.73
17781;BME280;8498;52.516;13.790;2023-07-30T17:40:54;100440.28;;;21.69;72.31
17781;BME280;8498;52.516;13.790;2023-07-30T17:46:16;100438.16;;;21.79;72.37
17781;BME280;8498;52.516;13.790;2023-07-30T17:51:43;100448.56;;;21.82;72.21
17781;BME280;8498;52.516;13.790;2023-07-30T17:57:05;100447.91;;;21.80;72.40
17781;BME280;8498;52.516;13.790;2023-07-30T18:02:27;100460.25;;;21.60;72.17
17781;BME280;8498;52.516;13.790;2023-07-30T18:07:50;100457.38;;;21.61;71.75
17781;BME280;8498;52.516;13.790;2023-07-30T18:13:15;100466.75;;;21.51;72.52
17781;BME280;8498;52.516;13.790;2023-07-30T18:23:59;100479.38;;;21.36;73.43
17781;BME280;8498;52.516;13.790;2023-07-30T18:29:22;100485.84;;;21.27;74.38
17781;BME280;8498;52.516;13.790;2023-07-30T18:34:45;100486.53;;;21.20;75.72
17781;BME280;8498;52.516;13.790;2023-07-30T18:40:08;100499.38;;;21.18;75.83
17781;BME280;8498;52.516;13.790;2023-07-30T18:45:31;100498.09;;;21.06;75.97
17781;BME280;8498;52.516;13.790;2023-07-30T18:50:55;100512.69;;;20.81;76.72
17781;BME280;8498;52.516;13.790;2023-07-30T18:56:18;100504.97;;;20.70;77.37
17781;BME280;8498;52.516;13.790;2023-07-30T19:01:40;100520.88;;;20.57;78.14
17781;BME280;8498;52.516;13.790;2023-07-30T19:07:04;100519.91;;;20.41;79.11
17781;BME280;8498;52.516;13.790;2023-07-30T19:12:30;100530.69;;;20.33;79.59
17781;BME280;8498;52.516;13.790;2023-07-30T19:17:52;100533.03;;;20.28;79.56
17781;BME280;8498;52.516;13.790;2023-07-30T19:23:15;100546.53;;;20.20;80.63
17781;BME280;8498;52.516;13.790;2023-07-30T19:28:38;100541.81;;;20.06;81.10
17781;BME280;8498;52.516;13.790;2023-07-30T19:34:10;100556.66;;;20.10;81.27
17781;BME280;8498;52.516;13.790;2023-07-30T19:39:33;100557.84;;;20.07;81.97
17781;BME280;8498;52.516;13.790;2023-07-30T19:44:57;100567.47;;;20.10;82.20
17781;BME280;8498;52.516;13.790;2023-07-30T19:50:20;100610.59;;;20.10;82.80
17781;BME280;8498;52.516;13.790;2023-07-30T19:55:59;100646.47;;;19.86;81.46
17781;BME280;8498;52.516;13.790;2023-07-30T20:01:21;100654.28;;;19.55;82.72
17781;BME280;8498;52.516;13.790;2023-07-30T20:06:44;100655.50;;;19.27;85.90
17781;BME280;8498;52.516;13.790;2023-07-30T20:12:07;100646.69;;;19.17;89.86
17781;BME280;8498;52.516;13.790;2023-07-30T20:17:29;100643.59;;;19.03;92.27
17781;BME280;8498;52.516;13.790;2023-07-30T20:22:52;100649.03;;;18.86;94.02
17781;BME280;8498;52.516;13.790;2023-07-30T20:28:14;100645.06;;;18.72;96.61
17781;BME280;8498;52.516;13.790;2023-07-30T20:33:37;100644.00;;;18.65;98.47
17781;BME280;8498;52.516;13.790;2023-07-30T20:38:59;100657.47;;;18.65;99.73
17781;BME280;8498;52.516;13.790;2023-07-30T20:44:22;100647.00;;;18.62;100.00
17781;BME280;8498;52.516;13.790;2023-07-30T20:49:44;100662.63;;;18.58;100.00
17781;BME280;8498;52.516;13.790;2023-07-30T20:55:07;100663.63;;;18.57;100.00
17781;BME280;8498;52.516;13.790;2023-07-30T21:00:29;100660.31;;;18.46;100.00
17781;BME280;8498;52.516;13.790;2023-07-30T21:05:52;100659.84;;;18.32;100.00
17781;BME280;8498;52.516;13.790;2023-07-30T21:11:14;100653.41;;;18.25;100.00
17781;BME280;8498;52.516;13.790;2023-07-30T21:16:36;100653.59;;;18.06;100.00
17781;BME280;8498;52.516;13.790;2023-07-30T21:21:59;100662.38;;;17.98;100.00
17781;BME280;8498;52.516;13.790;2023-07-30T21:27:21;100659.84;;;17.97;100.00
17781;BME280;8498;52.516;13.790;2023-07-30T21:32:44;100661.97;;;17.76;100.00
17781;BME280;8498;52.516;13.790;2023-07-30T21:38:06;100659.53;;;17.65;100.00
17781;BME280;8498;52.516;13.790;2023-07-30T21:43:30;100656.16;;;17.53;100.00
17781;BME280;8498;52.516;13.790;2023-07-30T21:48:52;100657.28;;;17.50;100.00
17781;BME280;8498;52.516;13.790;2023-07-30T21:54:14;100669.78;;;17.42;100.00
17781;BME280;8498;52.516;13.790;2023-07-30T21:59:37;100673.03;;;17.36;100.00
17781;BME280;8498;52.516;13.790;2023-07-30T22:04:59;100660.31;;;17.38;100.00
17781;BME280;8498;52.516;13.790;2023-07-30T22:10:22;100656.44;;;17.50;100.00
17781;BME280;8498;52.516;13.790;2023-07-30T22:15:45;100644.06;;;17.67;100.00
17781;BME280;8498;52.516;13.790;2023-07-30T22:21:08;100641.03;;;17.79;100.00
17781;BME280;8498;52.516;13.790;2023-07-30T22:26:31;100648.25;;;17.96;98.76
17781;BME280;8498;52.516;13.790;2023-07-30T22:31:53;100641.13;;;18.05;95.29
17781;BME280;8498;52.516;13.790;2023-07-30T22:37:16;100634.28;;;18.11;93.67
17781;BME280;8498;52.516;13.790;2023-07-30T22:42:38;100628.75;;;18.12;91.37
17781;BME280;8498;52.516;13.790;2023-07-30T22:48:00;100624.28;;;18.21;90.52
17781;BME280;8498;52.516;13.790;2023-07-30T22:53:23;100625.84;;;18.23;88.26
17781;BME280;8498;52.516;13.790;2023-07-30T22:58:45;100614.69;;;18.18;86.36
17781;BME280;8498;52.516;13.790;2023-07-30T23:04:08;100628.59;;;18.14;85.83
17781;BME280;8498;52.516;13.790;2023-07-30T23:09:30;100619.41;;;18.16;85.69
17781;BME280;8498;52.516;13.790;2023-07-30T23:14:54;100611.47;;;18.15;85.49
17781;BME280;8498;52.516;13.790;2023-07-30T23:20:16;100616.72;;;18.16;85.76
17781;BME280;8498;52.516;13.790;2023-07-30T23:25:39;100617.38;;;18.18;85.71
17781;BME280;8498;52.516;13.790;2023-07-30T23:31:01;100613.31;;;18.14;85.79
17781;BME280;8498;52.516;13.790;2023-07-30T23:36:24;100625.59;;;17.99;87.40
17781;BME280;8498;52.516;13.790;2023-07-30T23:41:46;100635.66;;;17.97;88.81
17781;BME280;8498;52.516;13.790;2023-07-30T23:47:09;100616.91;;;17.87;90.99
17781;BME280;8498;52.516;13.790;2023-07-30T23:52:31;100610.31;;;17.82;92.10
17781;BME280;8498;52.516;13.790;2023-07-30T23:57:54;100597.97;;;17.89;92.31
